createdAt,value
2022-10-01T00:08:52.003Z,1.77
2022-10-01T00:18:57.898Z,1.73
2022-10-01T00:29:05.444Z,1.10
2022-10-01T00:39:11.518Z,1.83
2022-10-01T00:49:21.639Z,2.03
2022-10-01T00:59:27.503Z,1.50
2022-10-01T01:09:34.761Z,1.60
2022-10-01T01:20:00.287Z,1.70
2022-10-01T01:30:09.385Z,1.73
2022-10-01T01:40:16.078Z,1.37
2022-10-01T01:50:21.246Z,1.70
2022-10-01T02:00:26.802Z,1.97
2022-10-01T02:10:50.185Z,1.80
2022-10-01T02:21:05.543Z,1.53
2022-10-01T02:31:13.060Z,1.23
2022-10-01T02:41:24.130Z,2.07
2022-10-01T02:51:39.469Z,1.77
2022-10-01T03:01:44.780Z,2.23
2022-10-01T03:11:49.925Z,1.57
2022-10-01T03:21:53.814Z,1.47
2022-10-01T03:31:58.845Z,1.40
2022-10-01T03:42:02.514Z,1.43
2022-10-01T03:52:07.691Z,1.47
2022-10-01T04:02:11.432Z,1.70
2022-10-01T04:12:16.484Z,0.90
2022-10-01T04:22:20.118Z,0.93
2022-10-01T04:32:26.193Z,1.40
2022-10-01T04:42:29.822Z,1.17
2022-10-01T04:52:34.862Z,1.03
2022-10-01T05:02:38.629Z,0.63
2022-10-01T05:12:44.222Z,0.87
2022-10-01T05:22:48.908Z,0.90
2022-10-01T05:32:58.964Z,1.10
2022-10-01T05:43:04.228Z,0.60
2022-10-01T05:53:11.319Z,1.20
2022-10-01T06:03:15.189Z,1.10
2022-10-01T06:13:20.262Z,1.67
2022-10-01T06:23:31.006Z,1.10
2022-10-01T06:33:36.658Z,0.90
2022-10-01T06:43:40.423Z,0.80
2022-10-01T06:53:45.368Z,0.60
2022-10-01T07:03:48.947Z,0.80
2022-10-01T07:13:54.798Z,1.10
2022-10-01T07:23:58.546Z,1.43
2022-10-01T07:34:06.633Z,0.97
2022-10-01T07:44:11.711Z,0.80
2022-10-01T07:54:21.682Z,1.17
2022-10-01T08:04:45.832Z,0.90
2022-10-01T08:14:50.936Z,1.03
2022-10-01T08:24:54.601Z,0.80
2022-10-01T08:35:01.216Z,0.90
2022-10-01T08:45:12.634Z,0.80
2022-10-01T08:55:21.803Z,0.80
2022-10-01T09:05:32.608Z,0.53
2022-10-01T09:15:47.390Z,0.53
2022-10-01T09:25:54.088Z,0.93
2022-10-01T09:36:09.935Z,1.00
2022-10-01T09:46:17.594Z,0.70
2022-10-01T09:56:32.173Z,0.60
2022-10-01T10:06:36.207Z,0.50
2022-10-01T10:16:47.264Z,0.77
2022-10-01T10:26:56.508Z,0.70
2022-10-01T10:37:06.115Z,0.70
2022-10-01T10:47:13.578Z,0.70
2022-10-01T10:57:22.274Z,0.60
2022-10-01T11:07:27.823Z,0.67
2022-10-01T11:18:04.173Z,0.70
2022-10-01T11:28:24.108Z,0.50
2022-10-01T11:38:45.575Z,0.50
2022-10-01T11:48:53.321Z,0.47
2022-10-01T11:59:05.353Z,0.40
2022-10-01T12:09:18.812Z,0.40
2022-10-01T12:19:28.231Z,0.40
2022-10-01T12:29:43.227Z,0.53
2022-10-01T12:40:11.106Z,0.53
2022-10-01T12:50:36.269Z,0.30
2022-10-01T13:00:56.179Z,0.50
2022-10-01T13:11:10.552Z,0.70
2022-10-01T13:21:23.646Z,0.40
2022-10-01T13:31:38.458Z,0.50
2022-10-01T13:41:48.010Z,0.25
2022-10-01T13:51:54.124Z,0.20
2022-10-01T14:01:59.208Z,0.30
2022-10-01T14:12:24.166Z,0.30
2022-10-01T14:22:56.397Z,0.30
2022-10-01T14:33:39.339Z,0.10
2022-10-01T14:43:46.063Z,0.10
2022-10-01T14:53:49.953Z,0.20
2022-10-01T15:03:58.472Z,0.30
2022-10-01T15:14:06.430Z,0.10
2022-10-01T15:24:21.666Z,0.28
2022-10-01T15:34:27.441Z,0.40
2022-10-01T15:44:50.381Z,0.20
2022-10-01T15:55:00.535Z,0.25
2022-10-01T16:05:08.844Z,0.40
2022-10-01T16:15:26.992Z,0.28
2022-10-01T16:25:33.646Z,0.30
2022-10-01T16:35:44.394Z,0.63
2022-10-01T16:45:49.829Z,1.15
2022-10-01T16:55:55.874Z,0.40
2022-10-01T17:06:00.835Z,0.40
2022-10-01T17:16:07.729Z,0.30
2022-10-01T17:26:18.341Z,0.53
2022-10-01T17:36:23.297Z,0.40
2022-10-01T17:46:28.341Z,0.60
2022-10-01T17:56:33.098Z,1.00
2022-10-01T18:06:38.346Z,0.60
2022-10-01T18:16:42.371Z,0.70
2022-10-01T18:26:49.750Z,2.63
2022-10-01T18:37:00.018Z,8.27
2022-10-01T18:47:20.005Z,8.23
2022-10-01T18:57:43.135Z,1.23
2022-10-01T19:08:01.282Z,2.40
2022-10-01T19:18:33.887Z,7.70
2022-10-01T19:28:57.653Z,12.10
2022-10-01T19:39:09.175Z,2.47
2022-10-01T19:49:21.766Z,4.87
2022-10-01T19:59:25.466Z,1.33
2022-10-01T20:09:37.507Z,1.00
2022-10-01T20:19:48.015Z,0.90
2022-10-01T20:30:01.594Z,1.77
2022-10-01T20:40:14.730Z,3.57
2022-10-01T20:50:27.383Z,2.67
2022-10-01T21:00:31.464Z,1.67
2022-10-01T21:10:42.459Z,2.13
2022-10-01T21:20:59.338Z,2.33
2022-10-01T21:31:21.344Z,1.20
2022-10-01T21:41:53.672Z,0.77
2022-10-01T21:52:12.161Z,0.80
2022-10-01T22:02:29.751Z,0.50
2022-10-01T22:12:39.755Z,0.80
2022-10-01T22:22:44.491Z,0.97
2022-10-01T22:32:57.461Z,0.60
2022-10-01T22:43:06.468Z,0.60
2022-10-01T22:53:37.553Z,0.80
2022-10-01T23:04:04.249Z,1.20
2022-10-01T23:14:19.800Z,1.00
2022-10-01T23:24:39.523Z,0.80
2022-10-01T23:34:53.427Z,0.60
2022-10-01T23:45:07.591Z,1.30
2022-10-01T23:55:33.221Z,1.10
